sensor_id;sensor_type;location;lat;lon;timestamp;P1;durP1;ratioP1;P2;durP2;ratioP2
22841;SDS011;11587;47.064;15.444;2023-05-10T00:00:33;0.20;;;0.20;;
22841;SDS011;11587;47.064;15.444;2023-05-10T00:02:59;0.20;;;0.20;;
22841;SDS011;11587;47.064;15.444;2023-05-10T00:05:25;0.20;;;0.20;;
22841;SDS011;11587;47.064;15.444;2023-05-10T00:07:51;0.20;;;0.20;;
22841;SDS011;11587;47.064;15.444;2023-05-10T00:10:17;0.20;;;0.20;;
22841;SDS011;11587;47.064;15.444;2023-05-10T00:12:43;0.20;;;0.20;;
22841;SDS011;11587;47.064;15.444;2023-05-10T00:15:09;0.20;;;0.20;;
22841;SDS011;11587;47.064;15.444;2023-05-10T00:17:35;0.20;;;0.20;;
22841;SDS011;11587;47.064;15.444;2023-05-10T00:20:02;0.20;;;0.20;;
22841;SDS011;11587;47.064;15.444;2023-05-10T00:22:29;0.20;;;0.20;;
22841;SDS011;11587;47.064;15.444;2023-05-10T00:24:55;0.20;;;0.20;;
22841;SDS011;11587;47.064;15.444;2023-05-10T00:27:21;0.20;;;0.20;;
22841;SDS011;11587;47.064;15.444;2023-05-10T00:29:47;0.20;;;0.20;;
22841;SDS011;11587;47.064;15.444;2023-05-10T00:32:13;0.20;;;0.20;;
22841;SDS011;11587;47.064;15.444;2023-05-10T00:34:40;0.20;;;0.20;;
22841;SDS011;11587;47.064;15.444;2023-05-10T00:37:06;0.20;;;0.20;;
22841;SDS011;11587;47.064;15.444;2023-05-10T00:39:32;0.20;;;0.20;;
22841;SDS011;11587;47.064;15.444;2023-05-10T00:41:58;0.20;;;0.20;;
22841;SDS011;11587;47.064;15.444;2023-05-10T00:44:24;0.20;;;0.20;;
22841;SDS011;11587;47.064;15.444;2023-05-10T00:46:50;0.20;;;0.20;;
22841;SDS011;11587;47.064;15.444;2023-05-10T00:49:16;0.20;;;0.20;;
22841;SDS011;11587;47.064;15.444;2023-05-10T00:51:43;0.20;;;0.20;;
22841;SDS011;11587;47.064;15.444;2023-05-10T00:54:11;0.20;;;0.20;;
22841;SDS011;11587;47.064;15.444;2023-05-10T00:56:37;0.20;;;0.20;;
22841;SDS011;11587;47.064;15.444;2023-05-10T00:59:03;0.20;;;0.20;;
22841;SDS011;11587;47.064;15.444;2023-05-10T01:01:29;0.20;;;0.20;;
22841;SDS011;11587;47.064;15.444;2023-05-10T01:03:56;0.20;;;0.20;;
22841;SDS011;11587;47.064;15.444;2023-05-10T01:06:22;0.20;;;0.20;;
22841;SDS011;11587;47.064;15.444;2023-05-10T01:08:48;0.20;;;0.20;;
22841;SDS011;11587;47.064;15.444;2023-05-10T01:11:15;0.20;;;0.20;;
22841;SDS011;11587;47.064;15.444;2023-05-10T01:13:42;0.20;;;0.20;;
22841;SDS011;11587;47.064;15.444;2023-05-10T01:16:08;0.20;;;0.20;;
22841;SDS011;11587;47.064;15.444;2023-05-10T01:18:38;0.20;;;0.20;;
22841;SDS011;11587;47.064;15.444;2023-05-10T01:31:30;0.20;;;0.20;;
22841;SDS011;11587;47.064;15.444;2023-05-10T01:34:01;0.20;;;0.20;;
22841;SDS011;11587;47.064;15.444;2023-05-10T01:36:32;0.20;;;0.20;;
22841;SDS011;11587;47.064;15.444;2023-05-10T01:39:01;0.20;;;0.20;;
22841;SDS011;11587;47.064;15.444;2023-05-10T01:46:39;0.20;;;0.20;;
22841;SDS011;11587;47.064;15.444;2023-05-10T01:49:29;0.20;;;0.20;;
22841;SDS011;11587;47.064;15.444;2023-05-10T01:51:53;0.20;;;0.20;;
22841;SDS011;11587;47.064;15.444;2023-05-10T01:54:20;0.20;;;0.20;;
22841;SDS011;11587;47.064;15.444;2023-05-10T01:56:52;0.20;;;0.20;;
22841;SDS011;11587;47.064;15.444;2023-05-10T01:59:19;0.20;;;0.20;;
22841;SDS011;11587;47.064;15.444;2023-05-10T02:01:45;0.20;;;0.20;;
22841;SDS011;11587;47.064;15.444;2023-05-10T02:04:13;0.20;;;0.20;;
22841;SDS011;11587;47.064;15.444;2023-05-10T02:06:41;0.20;;;0.20;;
22841;SDS011;11587;47.064;15.444;2023-05-10T02:09:08;0.20;;;0.20;;
22841;SDS011;11587;47.064;15.444;2023-05-10T02:11:37;0.20;;;0.20;;
22841;SDS011;11587;47.064;15.444;2023-05-10T02:14:03;0.20;;;0.20;;
22841;SDS011;11587;47.064;15.444;2023-05-10T02:16:31;0.20;;;0.20;;
22841;SDS011;11587;47.064;15.444;2023-05-10T02:18:57;0.20;;;0.20;;
22841;SDS011;11587;47.064;15.444;2023-05-10T02:21:25;0.20;;;0.20;;
22841;SDS011;11587;47.064;15.444;2023-05-10T02:23:51;0.20;;;0.20;;
22841;SDS011;11587;47.064;15.444;2023-05-10T02:26:18;0.20;;;0.20;;
22841;SDS011;11587;47.064;15.444;2023-05-10T02:28:45;0.20;;;0.20;;
22841;SDS011;11587;47.064;15.444;2023-05-10T02:31:11;0.20;;;0.20;;
22841;SDS011;11587;47.064;15.444;2023-05-10T02:33:40;0.20;;;0.20;;
22841;SDS011;11587;47.064;15.444;2023-05-10T02:36:12;0.20;;;0.20;;
22841;SDS011;11587;47.064;15.444;2023-05-10T02:38:38;0.20;;;0.20;;
22841;SDS011;11587;47.064;15.444;2023-05-10T02:41:04;0.20;;;0.20;;
22841;SDS011;11587;47.064;15.444;2023-05-10T02:43:32;0.20;;;0.20;;
22841;SDS011;11587;47.064;15.444;2023-05-10T02:45:58;0.20;;;0.20;;
22841;SDS011;11587;47.064;15.444;2023-05-10T02:48:24;0.20;;;0.20;;
22841;SDS011;11587;47.064;15.444;2023-05-10T02:50:51;0.30;;;0.30;;
22841;SDS011;11587;47.064;15.444;2023-05-10T02:53:22;0.20;;;0.20;;
22841;SDS011;11587;47.064;15.444;2023-05-10T02:55:50;0.22;;;0.22;;
22841;SDS011;11587;47.064;15.444;2023-05-10T02:58:17;0.20;;;0.20;;
22841;SDS011;11587;47.064;15.444;2023-05-10T03:00:46;0.20;;;0.20;;
22841;SDS011;11587;47.064;15.444;2023-05-10T03:03:12;0.20;;;0.20;;
22841;SDS011;11587;47.064;15.444;2023-05-10T03:05:44;0.20;;;0.20;;
22841;SDS011;11587;47.064;15.444;2023-05-10T03:08:12;0.30;;;0.30;;
22841;SDS011;11587;47.064;15.444;2023-05-10T03:10:41;0.20;;;0.20;;
22841;SDS011;11587;47.064;15.444;2023-05-10T03:13:13;0.20;;;0.20;;
22841;SDS011;11587;47.064;15.444;2023-05-10T03:15:55;0.20;;;0.20;;
22841;SDS011;11587;47.064;15.444;2023-05-10T03:18:28;0.30;;;0.30;;
22841;SDS011;11587;47.064;15.444;2023-05-10T03:20:59;0.20;;;0.20;;
22841;SDS011;11587;47.064;15.444;2023-05-10T03:23:30;0.20;;;0.20;;
22841;SDS011;11587;47.064;15.444;2023-05-10T03:25:57;0.30;;;0.30;;
22841;SDS011;11587;47.064;15.444;2023-05-10T03:28:23;0.20;;;0.20;;
22841;SDS011;11587;47.064;15.444;2023-05-10T03:30:50;0.20;;;0.20;;
22841;SDS011;11587;47.064;15.444;2023-05-10T03:33:18;0.20;;;0.20;;
22841;SDS011;11587;47.064;15.444;2023-05-10T03:35:44;0.20;;;0.20;;
22841;SDS011;11587;47.064;15.444;2023-05-10T03:38:11;0.20;;;0.20;;
22841;SDS011;11587;47.064;15.444;2023-05-10T03:40:37;0.20;;;0.20;;
22841;SDS011;11587;47.064;15.444;2023-05-10T03:43:03;0.20;;;0.20;;
22841;SDS011;11587;47.064;15.444;2023-05-10T03:45:29;0.20;;;0.20;;
22841;SDS011;11587;47.064;15.444;2023-05-10T03:47:56;0.20;;;0.20;;
22841;SDS011;11587;47.064;15.444;2023-05-10T03:50:22;0.20;;;0.20;;
22841;SDS011;11587;47.064;15.444;2023-05-10T03:52:48;0.20;;;0.20;;
22841;SDS011;11587;47.064;15.444;2023-05-10T03:55:14;0.20;;;0.20;;
22841;SDS011;11587;47.064;15.444;2023-05-10T03:57:41;0.20;;;0.20;;
22841;SDS011;11587;47.064;15.444;2023-05-10T04:00:07;0.20;;;0.20;;
22841;SDS011;11587;47.064;15.444;2023-05-10T04:02:33;0.20;;;0.20;;
22841;SDS011;11587;47.064;15.444;2023-05-10T04:04:59;0.20;;;0.20;;
22841;SDS011;11587;47.064;15.444;2023-05-10T04:07:26;0.20;;;0.20;;
22841;SDS011;11587;47.064;15.444;2023-05-10T04:09:52;0.20;;;0.20;;
22841;SDS011;11587;47.064;15.444;2023-05-10T04:12:18;0.20;;;0.20;;
22841;SDS011;11587;47.064;15.444;2023-05-10T04:14:44;0.20;;;0.20;;
22841;SDS011;11587;47.064;15.444;2023-05-10T04:17:10;0.20;;;0.20;;
22841;SDS011;11587;47.064;15.444;2023-05-10T04:19:36;0.20;;;0.20;;
22841;SDS011;11587;47.064;15.444;2023-05-10T04:22:02;0.20;;;0.20;;
22841;SDS011;11587;47.064;15.444;2023-05-10T04:24:28;0.20;;;0.20;;
22841;SDS011;11587;47.064;15.444;2023-05-10T04:26:54;0.20;;;0.20;;
22841;SDS011;11587;47.064;15.444;2023-05-10T04:29:21;0.20;;;0.20;;
22841;SDS011;11587;47.064;15.444;2023-05-10T04:31:47;0.20;;;0.20;;
22841;SDS011;11587;47.064;15.444;2023-05-10T04:34:13;0.20;;;0.20;;
22841;SDS011;11587;47.064;15.444;2023-05-10T04:36:39;0.20;;;0.20;;
22841;SDS011;11587;47.064;15.444;2023-05-10T04:39:05;0.20;;;0.20;;
22841;SDS011;11587;47.064;15.444;2023-05-10T04:41:32;0.20;;;0.20;;
22841;SDS011;11587;47.064;15.444;2023-05-10T04:43:58;0.20;;;0.20;;
22841;SDS011;11587;47.064;15.444;2023-05-10T04:46:24;0.20;;;0.20;;
22841;SDS011;11587;47.064;15.444;2023-05-10T04:48:50;0.20;;;0.20;;
22841;SDS011;11587;47.064;15.444;2023-05-10T04:51:16;0.20;;;0.20;;
22841;SDS011;11587;47.064;15.444;2023-05-10T04:53:42;0.20;;;0.20;;
22841;SDS011;11587;47.064;15.444;2023-05-10T04:56:08;0.20;;;0.20;;
22841;SDS011;11587;47.064;15.444;2023-05-10T04:58:34;0.20;;;0.20;;
22841;SDS011;11587;47.064;15.444;2023-05-10T05:01:06;0.30;;;0.30;;
22841;SDS011;11587;47.064;15.444;2023-05-10T05:03:35;0.20;;;0.20;;
22841;SDS011;11587;47.064;15.444;2023-05-10T05:06:02;0.20;;;0.20;;
22841;SDS011;11587;47.064;15.444;2023-05-10T05:08:28;0.20;;;0.20;;
22841;SDS011;11587;47.064;15.444;2023-05-10T05:10:54;0.20;;;0.20;;
22841;SDS011;11587;47.064;15.444;2023-05-10T05:13:20;0.20;;;0.20;;
22841;SDS011;11587;47.064;15.444;2023-05-10T05:15:46;0.20;;;0.20;;
22841;SDS011;11587;47.064;15.444;2023-05-10T05:18:12;0.20;;;0.20;;
22841;SDS011;11587;47.064;15.444;2023-05-10T05:20:38;0.20;;;0.20;;
22841;SDS011;11587;47.064;15.444;2023-05-10T05:23:04;0.20;;;0.20;;
22841;SDS011;11587;47.064;15.444;2023-05-10T05:25:30;0.20;;;0.20;;
22841;SDS011;11587;47.064;15.444;2023-05-10T05:27:57;0.20;;;0.20;;
22841;SDS011;11587;47.064;15.444;2023-05-10T05:30:23;0.20;;;0.20;;
22841;SDS011;11587;47.064;15.444;2023-05-10T05:32:49;0.20;;;0.20;;
22841;SDS011;11587;47.064;15.444;2023-05-10T05:35:15;0.20;;;0.20;;
22841;SDS011;11587;47.064;15.444;2023-05-10T05:37:41;0.20;;;0.20;;
22841;SDS011;11587;47.064;15.444;2023-05-10T05:40:07;0.30;;;0.30;;
22841;SDS011;11587;47.064;15.444;2023-05-10T05:42:33;0.20;;;0.20;;
22841;SDS011;11587;47.064;15.444;2023-05-10T05:44:59;0.20;;;0.20;;
22841;SDS011;11587;47.064;15.444;2023-05-10T05:47:25;0.20;;;0.20;;
22841;SDS011;11587;47.064;15.444;2023-05-10T05:49:51;0.20;;;0.20;;
22841;SDS011;11587;47.064;15.444;2023-05-10T05:52:17;0.10;;;0.10;;
22841;SDS011;11587;47.064;15.444;2023-05-10T05:54:43;0.20;;;0.20;;
22841;SDS011;11587;47.064;15.444;2023-05-10T05:57:09;0.10;;;0.10;;
22841;SDS011;11587;47.064;15.444;2023-05-10T05:59:35;0.10;;;0.10;;
22841;SDS011;11587;47.064;15.444;2023-05-10T06:02:06;0.20;;;0.20;;
22841;SDS011;11587;47.064;15.444;2023-05-10T06:04:32;0.20;;;0.20;;
22841;SDS011;11587;47.064;15.444;2023-05-10T06:06:58;0.20;;;0.20;;
22841;SDS011;11587;47.064;15.444;2023-05-10T06:09:24;0.20;;;0.20;;
22841;SDS011;11587;47.064;15.444;2023-05-10T06:11:50;0.10;;;0.10;;
22841;SDS011;11587;47.064;15.444;2023-05-10T06:14:16;0.20;;;0.20;;
22841;SDS011;11587;47.064;15.444;2023-05-10T06:16:42;0.20;;;0.20;;
22841;SDS011;11587;47.064;15.444;2023-05-10T06:19:08;0.20;;;0.20;;
22841;SDS011;11587;47.064;15.444;2023-05-10T06:21:34;0.20;;;0.20;;
22841;SDS011;11587;47.064;15.444;2023-05-10T06:24:00;0.10;;;0.10;;
22841;SDS011;11587;47.064;15.444;2023-05-10T06:26:27;0.10;;;0.10;;
22841;SDS011;11587;47.064;15.444;2023-05-10T06:28:53;0.10;;;0.10;;
22841;SDS011;11587;47.064;15.444;2023-05-10T06:31:19;0.20;;;0.20;;
22841;SDS011;11587;47.064;15.444;2023-05-10T06:33:46;0.10;;;0.10;;
22841;SDS011;11587;47.064;15.444;2023-05-10T06:36:12;0.10;;;0.10;;
22841;SDS011;11587;47.064;15.444;2023-05-10T06:38:38;0.20;;;0.20;;
22841;SDS011;11587;47.064;15.444;2023-05-10T06:41:04;0.10;;;0.10;;
22841;SDS011;11587;47.064;15.444;2023-05-10T06:43:30;0.10;;;0.10;;
22841;SDS011;11587;47.064;15.444;2023-05-10T06:45:57;0.10;;;0.10;;
22841;SDS011;11587;47.064;15.444;2023-05-10T06:48:23;0.20;;;0.20;;
22841;SDS011;11587;47.064;15.444;2023-05-10T06:50:49;0.20;;;0.20;;
22841;SDS011;11587;47.064;15.444;2023-05-10T06:53:15;0.10;;;0.10;;
22841;SDS011;11587;47.064;15.444;2023-05-10T06:55:41;0.10;;;0.10;;
22841;SDS011;11587;47.064;15.444;2023-05-10T06:58:07;0.10;;;0.10;;
22841;SDS011;11587;47.064;15.444;2023-05-10T07:00:33;0.10;;;0.10;;
22841;SDS011;11587;47.064;15.444;2023-05-10T07:03:00;0.10;;;0.10;;
22841;SDS011;11587;47.064;15.444;2023-05-10T07:05:26;0.10;;;0.10;;
22841;SDS011;11587;47.064;15.444;2023-05-10T07:07:52;0.20;;;0.20;;
22841;SDS011;11587;47.064;15.444;2023-05-10T07:10:18;0.10;;;0.10;;
22841;SDS011;11587;47.064;15.444;2023-05-10T07:12:45;0.10;;;0.10;;
22841;SDS011;11587;47.064;15.444;2023-05-10T07:15:11;0.10;;;0.10;;
22841;SDS011;11587;47.064;15.444;2023-05-10T07:17:37;0.10;;;0.10;;
22841;SDS011;11587;47.064;15.444;2023-05-10T07:20:03;0.10;;;0.10;;
22841;SDS011;11587;47.064;15.444;2023-05-10T07:22:30;0.10;;;0.10;;
22841;SDS011;11587;47.064;15.444;2023-05-10T07:24:56;0.10;;;0.10;;
22841;SDS011;11587;47.064;15.444;2023-05-10T07:27:22;0.10;;;0.10;;
22841;SDS011;11587;47.064;15.444;2023-05-10T07:29:48;0.10;;;0.10;;
22841;SDS011;11587;47.064;15.444;2023-05-10T07:32:14;0.13;;;0.13;;
22841;SDS011;11587;47.064;15.444;2023-05-10T07:34:40;0.10;;;0.10;;
22841;SDS011;11587;47.064;15.444;2023-05-10T07:37:06;0.10;;;0.10;;
22841;SDS011;11587;47.064;15.444;2023-05-10T07:39:32;0.10;;;0.10;;
22841;SDS011;11587;47.064;15.444;2023-05-10T07:41:58;0.10;;;0.10;;
22841;SDS011;11587;47.064;15.444;2023-05-10T07:44:24;0.10;;;0.10;;
22841;SDS011;11587;47.064;15.444;2023-05-10T07:46:50;0.10;;;0.10;;
22841;SDS011;11587;47.064;15.444;2023-05-10T07:49:17;0.10;;;0.10;;
22841;SDS011;11587;47.064;15.444;2023-05-10T07:51:43;0.10;;;0.10;;
22841;SDS011;11587;47.064;15.444;2023-05-10T07:54:09;0.10;;;0.10;;
22841;SDS011;11587;47.064;15.444;2023-05-10T07:56:35;0.10;;;0.10;;
22841;SDS011;11587;47.064;15.444;2023-05-10T07:59:02;0.10;;;0.10;;
22841;SDS011;11587;47.064;15.444;2023-05-10T08:01:32;0.10;;;0.10;;
22841;SDS011;11587;47.064;15.444;2023-05-10T08:03:58;0.10;;;0.10;;
22841;SDS011;11587;47.064;15.444;2023-05-10T08:06:25;0.10;;;0.10;;
22841;SDS011;11587;47.064;15.444;2023-05-10T08:08:53;0.10;;;0.10;;
22841;SDS011;11587;47.064;15.444;2023-05-10T08:11:20;0.10;;;0.10;;
22841;SDS011;11587;47.064;15.444;2023-05-10T08:13:46;0.10;;;0.10;;
22841;SDS011;11587;47.064;15.444;2023-05-10T08:16:21;0.10;;;0.10;;
22841;SDS011;11587;47.064;15.444;2023-05-10T08:18:54;0.10;;;0.10;;
22841;SDS011;11587;47.064;15.444;2023-05-10T08:21:20;0.10;;;0.10;;
22841;SDS011;11587;47.064;15.444;2023-05-10T08:23:46;0.10;;;0.10;;
22841;SDS011;11587;47.064;15.444;2023-05-10T08:26:12;0.10;;;0.10;;
22841;SDS011;11587;47.064;15.444;2023-05-10T08:28:38;0.10;;;0.10;;
22841;SDS011;11587;47.064;15.444;2023-05-10T08:31:10;0.10;;;0.10;;
22841;SDS011;11587;47.064;15.444;2023-05-10T08:33:43;0.10;;;0.10;;
22841;SDS011;11587;47.064;15.444;2023-05-10T08:36:09;0.10;;;0.10;;
22841;SDS011;11587;47.064;15.444;2023-05-10T08:38:35;0.10;;;0.10;;
22841;SDS011;11587;47.064;15.444;2023-05-10T08:41:01;0.10;;;0.10;;
22841;SDS011;11587;47.064;15.444;2023-05-10T08:43:28;0.10;;;0.10;;
22841;SDS011;11587;47.064;15.444;2023-05-10T08:45:54;0.20;;;0.20;;
22841;SDS011;11587;47.064;15.444;2023-05-10T08:48:22;0.10;;;0.10;;
22841;SDS011;11587;47.064;15.444;2023-05-10T08:50:48;0.10;;;0.10;;
22841;SDS011;11587;47.064;15.444;2023-05-10T08:53:18;0.10;;;0.10;;
22841;SDS011;11587;47.064;15.444;2023-05-10T08:55:44;0.10;;;0.10;;
22841;SDS011;11587;47.064;15.444;2023-05-10T08:58:10;0.20;;;0.20;;
22841;SDS011;11587;47.064;15.444;2023-05-10T09:00:37;0.10;;;0.10;;
22841;SDS011;11587;47.064;15.444;2023-05-10T09:03:03;0.10;;;0.10;;
22841;SDS011;11587;47.064;15.444;2023-05-10T09:05:30;0.10;;;0.10;;
22841;SDS011;11587;47.064;15.444;2023-05-10T09:07:56;0.10;;;0.10;;
22841;SDS011;11587;47.064;15.444;2023-05-10T09:10:22;0.10;;;0.10;;
22841;SDS011;11587;47.064;15.444;2023-05-10T09:12:51;0.10;;;0.10;;
22841;SDS011;11587;47.064;15.444;2023-05-10T09:15:17;0.00;;;0.00;;
22841;SDS011;11587;47.064;15.444;2023-05-10T09:17:45;0.10;;;0.10;;
22841;SDS011;11587;47.064;15.444;2023-05-10T09:20:11;0.00;;;0.00;;
22841;SDS011;11587;47.064;15.444;2023-05-10T09:22:37;0.03;;;0.03;;
22841;SDS011;11587;47.064;15.444;2023-05-10T09:25:13;0.00;;;0.00;;
22841;SDS011;11587;47.064;15.444;2023-05-10T09:27:40;0.00;;;0.00;;
22841;SDS011;11587;47.064;15.444;2023-05-10T09:30:09;0.00;;;0.00;;
22841;SDS011;11587;47.064;15.444;2023-05-10T09:32:45;0.00;;;0.00;;
22841;SDS011;11587;47.064;15.444;2023-05-10T09:35:21;0.00;;;0.00;;
22841;SDS011;11587;47.064;15.444;2023-05-10T09:37:49;0.10;;;0.10;;
22841;SDS011;11587;47.064;15.444;2023-05-10T09:40:25;0.10;;;0.10;;
22841;SDS011;11587;47.064;15.444;2023-05-10T09:42:53;0.00;;;0.00;;
22841;SDS011;11587;47.064;15.444;2023-05-10T09:45:19;0.10;;;0.10;;
22841;SDS011;11587;47.064;15.444;2023-05-10T09:47:46;0.10;;;0.10;;
22841;SDS011;11587;47.064;15.444;2023-05-10T09:50:12;0.10;;;0.10;;
22841;SDS011;11587;47.064;15.444;2023-05-10T09:52:57;0.10;;;0.10;;
22841;SDS011;11587;47.064;15.444;2023-05-10T09:55:45;0.10;;;0.10;;
22841;SDS011;11587;47.064;15.444;2023-05-10T09:58:11;0.10;;;0.10;;
22841;SDS011;11587;47.064;15.444;2023-05-10T10:00:38;0.10;;;0.10;;
22841;SDS011;11587;47.064;15.444;2023-05-10T10:03:05;0.10;;;0.10;;
22841;SDS011;11587;47.064;15.444;2023-05-10T10:05:31;0.10;;;0.10;;
22841;SDS011;11587;47.064;15.444;2023-05-10T10:08:04;0.10;;;0.10;;
22841;SDS011;11587;47.064;15.444;2023-05-10T10:10:31;0.10;;;0.10;;
22841;SDS011;11587;47.064;15.444;2023-05-10T10:12:57;0.10;;;0.10;;
22841;SDS011;11587;47.064;15.444;2023-05-10T10:15:24;0.10;;;0.10;;
22841;SDS011;11587;47.064;15.444;2023-05-10T10:17:51;0.00;;;0.00;;
22841;SDS011;11587;47.064;15.444;2023-05-10T10:20:18;0.00;;;0.00;;
22841;SDS011;11587;47.064;15.444;2023-05-10T10:22:44;0.08;;;0.08;;
22841;SDS011;11587;47.064;15.444;2023-05-10T10:25:11;0.00;;;0.00;;
22841;SDS011;11587;47.064;15.444;2023-05-10T10:35:34;0.00;;;0.00;;
22841;SDS011;11587;47.064;15.444;2023-05-10T10:38:00;0.00;;;0.00;;
22841;SDS011;11587;47.064;15.444;2023-05-10T10:40:31;0.00;;;0.00;;
22841;SDS011;11587;47.064;15.444;2023-05-10T10:48:33;0.00;;;0.00;;
22841;SDS011;11587;47.064;15.444;2023-05-10T10:50:59;0.00;;;0.00;;
22841;SDS011;11587;47.064;15.444;2023-05-10T10:53:26;0.00;;;0.00;;
22841;SDS011;11587;47.064;15.444;2023-05-10T10:56:02;0.00;;;0.00;;
22841;SDS011;11587;47.064;15.444;2023-05-10T10:58:31;0.00;;;0.00;;
22841;SDS011;11587;47.064;15.444;2023-05-10T11:01:10;0.00;;;0.00;;
22841;SDS011;11587;47.064;15.444;2023-05-10T11:03:37;0.00;;;0.00;;
22841;SDS011;11587;47.064;15.444;2023-05-10T11:06:03;0.05;;;0.05;;
22841;SDS011;11587;47.064;15.444;2023-05-10T11:08:30;0.10;;;0.10;;
22841;SDS011;11587;47.064;15.444;2023-05-10T11:13:29;0.10;;;0.10;;
22841;SDS011;11587;47.064;15.444;2023-05-10T11:15:56;0.03;;;0.03;;
22841;SDS011;11587;47.064;15.444;2023-05-10T11:20:51;0.10;;;0.10;;
22841;SDS011;11587;47.064;15.444;2023-05-10T11:23:18;0.00;;;0.00;;
22841;SDS011;11587;47.064;15.444;2023-05-10T11:25:45;0.00;;;0.00;;
22841;SDS011;11587;47.064;15.444;2023-05-10T11:28:12;0.00;;;0.00;;
22841;SDS011;11587;47.064;15.444;2023-05-10T11:30:39;0.10;;;0.10;;
22841;SDS011;11587;47.064;15.444;2023-05-10T11:33:05;0.10;;;0.10;;
22841;SDS011;11587;47.064;15.444;2023-05-10T11:35:36;0.10;;;0.10;;
22841;SDS011;11587;47.064;15.444;2023-05-10T11:38:04;0.10;;;0.10;;
22841;SDS011;11587;47.064;15.444;2023-05-10T11:40:30;0.10;;;0.10;;
22841;SDS011;11587;47.064;15.444;2023-05-10T11:42:56;0.10;;;0.10;;
22841;SDS011;11587;47.064;15.444;2023-05-10T11:45:26;0.00;;;0.00;;
22841;SDS011;11587;47.064;15.444;2023-05-10T11:47:54;0.10;;;0.10;;
22841;SDS011;11587;47.064;15.444;2023-05-10T11:50:20;0.10;;;0.10;;
22841;SDS011;11587;47.064;15.444;2023-05-10T11:52:49;0.00;;;0.00;;
22841;SDS011;11587;47.064;15.444;2023-05-10T11:55:16;0.10;;;0.10;;
22841;SDS011;11587;47.064;15.444;2023-05-10T11:57:42;0.10;;;0.10;;
22841;SDS011;11587;47.064;15.444;2023-05-10T12:00:10;0.10;;;0.10;;
22841;SDS011;11587;47.064;15.444;2023-05-10T12:02:37;0.10;;;0.10;;
22841;SDS011;11587;47.064;15.444;2023-05-10T12:05:03;0.00;;;0.00;;
22841;SDS011;11587;47.064;15.444;2023-05-10T12:07:30;0.10;;;0.10;;
22841;SDS011;11587;47.064;15.444;2023-05-10T12:10:05;0.10;;;0.10;;
22841;SDS011;11587;47.064;15.444;2023-05-10T12:12:36;0.10;;;0.10;;
22841;SDS011;11587;47.064;15.444;2023-05-10T12:15:03;0.10;;;0.10;;
22841;SDS011;11587;47.064;15.444;2023-05-10T12:17:29;0.10;;;0.10;;
22841;SDS011;11587;47.064;15.444;2023-05-10T12:19:58;0.10;;;0.10;;
22841;SDS011;11587;47.064;15.444;2023-05-10T12:22:25;0.10;;;0.10;;
22841;SDS011;11587;47.064;15.444;2023-05-10T12:24:51;0.10;;;0.10;;
22841;SDS011;11587;47.064;15.444;2023-05-10T12:27:17;0.10;;;0.10;;
22841;SDS011;11587;47.064;15.444;2023-05-10T12:29:43;0.10;;;0.10;;
22841;SDS011;11587;47.064;15.444;2023-05-10T12:32:09;0.10;;;0.10;;
22841;SDS011;11587;47.064;15.444;2023-05-10T12:34:35;0.10;;;0.10;;
22841;SDS011;11587;47.064;15.444;2023-05-10T12:37:03;0.10;;;0.10;;
22841;SDS011;11587;47.064;15.444;2023-05-10T12:39:43;0.10;;;0.10;;
22841;SDS011;11587;47.064;15.444;2023-05-10T12:42:09;0.00;;;0.00;;
22841;SDS011;11587;47.064;15.444;2023-05-10T12:44:35;0.10;;;0.10;;
22841;SDS011;11587;47.064;15.444;2023-05-10T12:47:01;0.10;;;0.10;;
22841;SDS011;11587;47.064;15.444;2023-05-10T12:49:27;0.10;;;0.10;;
22841;SDS011;11587;47.064;15.444;2023-05-10T12:51:53;0.10;;;0.10;;
22841;SDS011;11587;47.064;15.444;2023-05-10T12:54:19;0.10;;;0.10;;
22841;SDS011;11587;47.064;15.444;2023-05-10T12:56:45;0.10;;;0.10;;
22841;SDS011;11587;47.064;15.444;2023-05-10T12:59:11;0.10;;;0.10;;
22841;SDS011;11587;47.064;15.444;2023-05-10T13:01:37;0.10;;;0.10;;
22841;SDS011;11587;47.064;15.444;2023-05-10T13:04:04;0.10;;;0.10;;
22841;SDS011;11587;47.064;15.444;2023-05-10T13:06:30;0.10;;;0.10;;
22841;SDS011;11587;47.064;15.444;2023-05-10T13:08:56;0.10;;;0.10;;
22841;SDS011;11587;47.064;15.444;2023-05-10T13:11:22;0.10;;;0.10;;
22841;SDS011;11587;47.064;15.444;2023-05-10T13:13:48;0.10;;;0.10;;
22841;SDS011;11587;47.064;15.444;2023-05-10T13:16:14;0.10;;;0.10;;
22841;SDS011;11587;47.064;15.444;2023-05-10T13:18:41;0.10;;;0.10;;
22841;SDS011;11587;47.064;15.444;2023-05-10T13:21:07;0.10;;;0.10;;
22841;SDS011;11587;47.064;15.444;2023-05-10T13:23:33;0.10;;;0.10;;
22841;SDS011;11587;47.064;15.444;2023-05-10T13:25:59;0.10;;;0.10;;
22841;SDS011;11587;47.064;15.444;2023-05-10T13:28:25;0.10;;;0.10;;
22841;SDS011;11587;47.064;15.444;2023-05-10T13:30:51;0.10;;;0.10;;
22841;SDS011;11587;47.064;15.444;2023-05-10T13:33:17;0.10;;;0.10;;
22841;SDS011;11587;47.064;15.444;2023-05-10T13:35:43;0.10;;;0.10;;
22841;SDS011;11587;47.064;15.444;2023-05-10T13:38:10;0.10;;;0.10;;
22841;SDS011;11587;47.064;15.444;2023-05-10T13:40:36;0.10;;;0.10;;
22841;SDS011;11587;47.064;15.444;2023-05-10T13:43:02;0.10;;;0.10;;
22841;SDS011;11587;47.064;15.444;2023-05-10T13:45:28;0.10;;;0.10;;
22841;SDS011;11587;47.064;15.444;2023-05-10T13:47:54;0.10;;;0.10;;
22841;SDS011;11587;47.064;15.444;2023-05-10T13:50:20;0.10;;;0.10;;
22841;SDS011;11587;47.064;15.444;2023-05-10T13:52:46;0.10;;;0.10;;
22841;SDS011;11587;47.064;15.444;2023-05-10T13:55:12;0.10;;;0.10;;
22841;SDS011;11587;47.064;15.444;2023-05-10T13:57:38;0.10;;;0.10;;
22841;SDS011;11587;47.064;15.444;2023-05-10T14:00:04;0.10;;;0.10;;
22841;SDS011;11587;47.064;15.444;2023-05-10T14:02:31;0.10;;;0.10;;
22841;SDS011;11587;47.064;15.444;2023-05-10T14:04:57;0.08;;;0.08;;
22841;SDS011;11587;47.064;15.444;2023-05-10T14:07:23;0.10;;;0.10;;
22841;SDS011;11587;47.064;15.444;2023-05-10T14:09:49;0.10;;;0.10;;
22841;SDS011;11587;47.064;15.444;2023-05-10T14:12:15;0.10;;;0.10;;
22841;SDS011;11587;47.064;15.444;2023-05-10T14:14:41;0.00;;;0.00;;
22841;SDS011;11587;47.064;15.444;2023-05-10T14:17:07;0.00;;;0.00;;
22841;SDS011;11587;47.064;15.444;2023-05-10T14:19:33;0.00;;;0.00;;
22841;SDS011;11587;47.064;15.444;2023-05-10T14:21:59;0.00;;;0.00;;
22841;SDS011;11587;47.064;15.444;2023-05-10T14:24:25;0.00;;;0.00;;
22841;SDS011;11587;47.064;15.444;2023-05-10T14:26:51;0.00;;;0.00;;
22841;SDS011;11587;47.064;15.444;2023-05-10T14:29:20;0.05;;;0.05;;
22841;SDS011;11587;47.064;15.444;2023-05-10T14:31:47;0.00;;;0.00;;
22841;SDS011;11587;47.064;15.444;2023-05-10T14:34:13;0.10;;;0.10;;
22841;SDS011;11587;47.064;15.444;2023-05-10T14:36:39;0.10;;;0.10;;
22841;SDS011;11587;47.064;15.444;2023-05-10T14:39:05;0.00;;;0.00;;
22841;SDS011;11587;47.064;15.444;2023-05-10T14:41:31;0.00;;;0.00;;
22841;SDS011;11587;47.064;15.444;2023-05-10T14:43:57;0.00;;;0.00;;
22841;SDS011;11587;47.064;15.444;2023-05-10T14:46:24;0.10;;;0.10;;
22841;SDS011;11587;47.064;15.444;2023-05-10T14:48:50;0.00;;;0.00;;
22841;SDS011;11587;47.064;15.444;2023-05-10T14:51:16;0.10;;;0.10;;
22841;SDS011;11587;47.064;15.444;2023-05-10T14:53:43;0.10;;;0.10;;
22841;SDS011;11587;47.064;15.444;2023-05-10T14:56:09;0.10;;;0.10;;
22841;SDS011;11587;47.064;15.444;2023-05-10T14:58:35;0.00;;;0.00;;
22841;SDS011;11587;47.064;15.444;2023-05-10T15:01:01;0.00;;;0.00;;
22841;SDS011;11587;47.064;15.444;2023-05-10T15:03:27;0.00;;;0.00;;
22841;SDS011;11587;47.064;15.444;2023-05-10T15:05:53;0.00;;;0.00;;